createdAt,value
2019-06-27T00:01:36.347Z,52.20
2019-06-27T00:04:07.120Z,52.47
2019-06-27T00:06:36.892Z,52.47
2019-06-27T00:09:09.350Z,52.37
2019-06-27T00:11:39.039Z,52.43
2019-06-27T00:14:08.814Z,52.60
2019-06-27T00:16:38.576Z,52.33
2019-06-27T00:19:08.339Z,52.13
2019-06-27T00:21:39.156Z,52.17
2019-06-27T00:24:08.856Z,51.50
2019-06-27T00:26:38.552Z,52.13
2019-06-27T00:29:08.277Z,51.87
2019-06-27T00:31:37.971Z,52.43
2019-06-27T00:34:07.731Z,51.90
2019-06-27T00:36:37.416Z,51.70
2019-06-27T00:39:08.230Z,52.53
2019-06-27T00:41:37.904Z,51.90
2019-06-27T00:44:07.592Z,52.07
2019-06-27T00:46:37.380Z,52.97
2019-06-27T00:49:07.202Z,51.73
2019-06-27T00:51:36.967Z,52.17
2019-06-27T00:54:06.820Z,51.73
2019-06-27T00:56:36.579Z,52.40
2019-06-27T00:59:06.344Z,52.43
2019-06-27T01:01:36.032Z,53.30
2019-06-27T01:04:05.875Z,51.80
2019-06-27T01:06:35.557Z,51.83
2019-06-27T01:09:07.088Z,50.97
2019-06-27T01:11:36.771Z,52.27
2019-06-27T01:14:06.642Z,51.70
2019-06-27T01:16:36.404Z,52.63
2019-06-27T01:19:06.190Z,51.83
2019-06-27T01:21:35.952Z,53.20
2019-06-27T01:24:05.788Z,52.87
2019-06-27T01:26:35.596Z,51.60
2019-06-27T01:29:05.372Z,51.83
2019-06-27T01:31:35.055Z,51.43
2019-06-27T01:34:04.916Z,51.80
2019-06-27T01:36:34.612Z,52.53
2019-06-27T01:39:05.186Z,52.13
2019-06-27T01:41:35.119Z,51.70
2019-06-27T01:44:07.632Z,51.33
2019-06-27T01:46:37.391Z,51.40
2019-06-27T01:49:07.083Z,51.50
2019-06-27T01:51:36.847Z,51.80
2019-06-27T01:54:06.538Z,51.63
2019-06-27T01:56:36.296Z,50.97
2019-06-27T01:59:06.300Z,51.77
2019-06-27T02:01:36.053Z,51.00
2019-06-27T02:04:05.851Z,51.53
2019-06-27T02:06:35.580Z,51.60
2019-06-27T02:09:06.101Z,51.43
2019-06-27T02:11:35.932Z,51.33
2019-06-27T02:14:05.716Z,51.37
2019-06-27T02:16:35.471Z,51.00
2019-06-27T02:19:05.264Z,50.67
2019-06-27T02:21:35.035Z,51.60
2019-06-27T02:24:04.892Z,50.80
2019-06-27T02:26:34.644Z,51.17
2019-06-27T02:29:04.498Z,50.63
2019-06-27T02:31:34.260Z,50.30
2019-06-27T02:34:06.808Z,51.07
2019-06-27T02:36:35.705Z,50.60
2019-06-27T02:39:05.849Z,50.60
2019-06-27T02:41:35.722Z,50.97
2019-06-27T02:44:05.549Z,51.17
2019-06-27T02:46:35.391Z,51.00
2019-06-27T02:49:05.337Z,50.83
2019-06-27T02:51:35.504Z,50.50
2019-06-27T02:54:05.294Z,50.80
2019-06-27T02:56:35.058Z,50.77
2019-06-27T02:59:04.998Z,50.17
2019-06-27T03:01:34.835Z,51.40
2019-06-27T03:04:06.944Z,50.90
2019-06-27T03:06:36.638Z,51.67
2019-06-27T03:09:06.909Z,50.90
2019-06-27T03:11:36.596Z,51.90
2019-06-27T03:14:06.441Z,50.80
2019-06-27T03:16:36.260Z,51.07
2019-06-27T03:19:06.190Z,50.43
2019-06-27T03:21:35.996Z,50.73
2019-06-27T03:24:05.768Z,50.60
2019-06-27T03:26:35.581Z,50.53
2019-06-27T03:29:05.287Z,52.07
2019-06-27T03:31:35.236Z,51.43
2019-06-27T03:34:04.973Z,50.67
2019-06-27T03:36:34.828Z,51.10
2019-06-27T03:39:05.885Z,50.93
2019-06-27T03:41:35.675Z,50.40
2019-06-27T03:44:05.444Z,50.20
2019-06-27T03:46:36.028Z,50.53
2019-06-27T03:49:05.792Z,51.83
2019-06-27T03:51:35.549Z,51.00
2019-06-27T03:54:05.245Z,50.77
2019-06-27T03:56:35.022Z,51.27
2019-06-27T03:59:12.360Z,51.20
2019-06-27T04:01:36.339Z,50.60
2019-06-27T04:04:06.129Z,52.03
2019-06-27T04:06:37.737Z,51.13
2019-06-27T04:09:07.564Z,51.20
2019-06-27T04:11:37.613Z,51.10
2019-06-27T04:14:07.401Z,50.53
2019-06-27T04:16:38.487Z,50.67
2019-06-27T04:19:08.561Z,51.00
2019-06-27T04:21:38.335Z,50.97
2019-06-27T04:24:08.113Z,52.20
2019-06-27T04:26:37.883Z,51.03
2019-06-27T04:29:07.676Z,51.63
2019-06-27T04:31:37.458Z,51.83
2019-06-27T04:34:07.231Z,51.23
2019-06-27T04:36:37.087Z,53.67
2019-06-27T04:39:06.953Z,52.17
2019-06-27T04:41:36.724Z,50.90
2019-06-27T04:44:06.500Z,50.83
2019-06-27T04:46:36.190Z,51.07
2019-06-27T04:49:05.897Z,52.13
2019-06-27T04:51:35.604Z,51.63
2019-06-27T04:54:05.431Z,50.67
2019-06-27T04:56:35.207Z,50.67
2019-06-27T04:59:04.988Z,51.97
2019-06-27T05:01:34.816Z,51.23
2019-06-27T05:04:04.571Z,50.90
2019-06-27T05:06:34.269Z,51.40
2019-06-27T05:09:05.965Z,51.50
2019-06-27T05:11:35.658Z,52.40
2019-06-27T05:14:05.500Z,51.43
2019-06-27T05:16:35.184Z,52.10
2019-06-27T05:19:04.956Z,51.67
2019-06-27T05:21:34.650Z,51.83
2019-06-27T05:24:04.422Z,52.80
2019-06-27T05:26:34.258Z,51.63
2019-06-27T05:29:04.166Z,52.20
2019-06-27T05:31:33.944Z,52.23
2019-06-27T05:34:03.736Z,52.17
2019-06-27T05:36:33.424Z,51.37
2019-06-27T05:39:04.419Z,52.20
2019-06-27T05:41:34.256Z,52.13
2019-06-27T05:44:04.099Z,54.10
2019-06-27T05:46:33.897Z,51.87
2019-06-27T05:49:03.595Z,53.33
2019-06-27T05:51:33.306Z,52.27
2019-06-27T05:54:03.050Z,52.37
2019-06-27T05:56:32.903Z,51.37
2019-06-27T05:59:02.638Z,51.20
2019-06-27T06:01:32.492Z,51.30
2019-06-27T06:04:02.191Z,52.40
2019-06-27T06:06:31.881Z,50.70
2019-06-27T06:09:02.642Z,51.17
2019-06-27T06:11:32.398Z,51.30
2019-06-27T06:14:02.387Z,51.13
2019-06-27T06:16:32.387Z,51.13
2019-06-27T06:19:02.078Z,51.03
2019-06-27T06:21:31.753Z,51.20
2019-06-27T06:24:01.441Z,52.07
2019-06-27T06:26:31.207Z,51.57
2019-06-27T06:29:01.051Z,52.00
2019-06-27T06:31:30.763Z,51.80
2019-06-27T06:34:00.501Z,51.20
2019-06-27T06:36:30.499Z,52.70
2019-06-27T06:39:00.199Z,52.03
2019-06-27T06:41:29.871Z,52.20
2019-06-27T06:43:59.636Z,52.07
2019-06-27T06:46:29.330Z,53.40
2019-06-27T06:48:59.023Z,52.83
2019-06-27T06:51:28.784Z,51.17
2019-06-27T06:53:58.468Z,51.00
2019-06-27T06:56:28.506Z,51.57
2019-06-27T06:58:58.180Z,51.93
2019-06-27T07:01:28.015Z,52.30
2019-06-27T07:03:57.699Z,51.80
2019-06-27T07:06:27.463Z,51.93
2019-06-27T07:08:57.315Z,52.00
2019-06-27T07:11:27.046Z,52.83
2019-06-27T07:13:56.799Z,53.13
2019-06-27T07:16:26.500Z,51.17
2019-06-27T07:18:56.167Z,53.20
2019-06-27T07:21:25.950Z,53.43
2019-06-27T07:23:56.723Z,51.93
2019-06-27T07:26:26.418Z,51.73
2019-06-27T07:28:56.102Z,52.43
2019-06-27T07:31:25.800Z,52.00
2019-06-27T07:33:55.551Z,51.50
2019-06-27T07:36:25.253Z,51.30
2019-06-27T07:38:54.932Z,52.80
2019-06-27T07:41:25.788Z,51.73
2019-06-27T07:43:55.538Z,52.97
2019-06-27T07:46:25.990Z,52.17
2019-06-27T07:48:55.858Z,51.40
2019-06-27T07:51:25.599Z,51.10
2019-06-27T07:53:55.299Z,51.53
2019-06-27T07:56:26.085Z,52.00
2019-06-27T07:58:55.759Z,53.50
2019-06-27T08:01:35.162Z,52.90
2019-06-27T08:03:56.915Z,52.17
2019-06-27T08:06:26.704Z,53.90
2019-06-27T08:08:56.386Z,54.13
2019-06-27T08:11:26.075Z,56.50
2019-06-27T08:13:55.746Z,56.93
2019-06-27T08:16:25.447Z,57.03
2019-06-27T08:18:55.277Z,58.83
2019-06-27T08:21:25.034Z,59.50
2019-06-27T08:23:54.713Z,57.97
2019-06-27T08:26:24.425Z,58.47
2019-06-27T08:28:54.094Z,58.17
2019-06-27T08:31:23.780Z,57.60
2019-06-27T08:33:53.516Z,57.43
2019-06-27T08:36:23.221Z,59.47
2019-06-27T08:38:52.980Z,59.13
2019-06-27T08:41:22.723Z,57.97
2019-06-27T08:43:52.419Z,58.87
2019-06-27T08:46:22.098Z,58.57
2019-06-27T08:48:51.786Z,58.97
2019-06-27T08:51:21.488Z,58.23
2019-06-27T08:53:51.155Z,59.17
2019-06-27T08:56:20.843Z,58.53
2019-06-27T08:58:50.527Z,58.50
2019-06-27T09:01:20.206Z,56.63
2019-06-27T09:03:49.898Z,56.73
2019-06-27T09:06:21.144Z,57.60
2019-06-27T09:08:51.119Z,57.27
2019-06-27T09:11:20.815Z,56.80
2019-06-27T09:13:50.484Z,56.80
2019-06-27T09:16:20.438Z,56.57
2019-06-27T09:18:50.371Z,58.00
2019-06-27T09:21:20.058Z,56.73
2019-06-27T09:23:49.771Z,57.00
2019-06-27T09:26:19.531Z,57.73
2019-06-27T09:28:49.221Z,58.30
2019-06-27T09:31:20.646Z,59.37
2019-06-27T09:33:50.569Z,58.60
2019-06-27T09:36:20.357Z,59.53
2019-06-27T09:38:50.487Z,59.63
2019-06-27T09:41:20.349Z,60.23
2019-06-27T09:43:50.181Z,58.83
2019-06-27T09:46:19.859Z,57.30
2019-06-27T09:48:49.754Z,56.43
2019-06-27T09:51:19.523Z,57.70
2019-06-27T09:53:54.831Z,57.17
2019-06-27T09:56:24.719Z,57.27
2019-06-27T09:58:54.427Z,57.50
2019-06-27T10:01:24.211Z,57.50
2019-06-27T10:03:54.073Z,57.10
2019-06-27T10:06:28.811Z,57.60
2019-06-27T10:08:58.543Z,58.00
2019-06-27T10:11:28.334Z,58.10
2019-06-27T10:13:58.122Z,57.80
2019-06-27T10:16:28.151Z,58.00
2019-06-27T10:18:57.946Z,57.70
2019-06-27T10:21:28.765Z,57.70
2019-06-27T10:23:58.430Z,58.43
2019-06-27T10:26:28.177Z,57.60
2019-06-27T10:28:57.951Z,57.57
2019-06-27T10:31:27.643Z,56.93
2019-06-27T10:33:57.336Z,56.03
2019-06-27T10:36:27.034Z,57.03
2019-06-27T10:38:56.710Z,56.93
2019-06-27T10:41:28.024Z,56.97
2019-06-27T10:43:58.649Z,57.30
2019-06-27T10:46:28.639Z,56.70
2019-06-27T10:48:58.330Z,56.83
2019-06-27T10:51:28.020Z,57.33
2019-06-27T10:53:57.866Z,57.30
2019-06-27T10:56:27.551Z,57.37
2019-06-27T10:58:57.224Z,57.00
2019-06-27T11:01:26.943Z,57.43
2019-06-27T11:03:56.755Z,56.90
2019-06-27T11:06:26.527Z,57.77
2019-06-27T11:08:57.376Z,57.57
2019-06-27T11:11:27.073Z,57.70
2019-06-27T11:13:59.304Z,57.80
2019-06-27T11:16:28.203Z,56.77
2019-06-27T11:18:58.068Z,57.47
2019-06-27T11:21:27.762Z,57.03
2019-06-27T11:23:57.440Z,56.97
2019-06-27T11:26:27.224Z,58.33
2019-06-27T11:28:56.891Z,57.90
2019-06-27T11:31:26.670Z,58.10
2019-06-27T11:33:56.327Z,57.47
2019-06-27T11:36:26.046Z,57.07
2019-06-27T11:38:55.742Z,57.73
2019-06-27T11:41:26.814Z,56.93
2019-06-27T11:43:56.499Z,57.27
2019-06-27T11:46:26.779Z,59.50
2019-06-27T11:48:56.463Z,59.17
2019-06-27T11:51:26.151Z,57.43
2019-06-27T11:53:55.870Z,57.77
2019-06-27T11:56:25.635Z,56.87
2019-06-27T11:58:55.348Z,57.93
2019-06-27T12:01:25.091Z,57.67
2019-06-27T12:03:54.875Z,58.27
2019-06-27T12:06:24.626Z,58.77
2019-06-27T12:08:54.306Z,58.40
2019-06-27T12:11:24.081Z,57.53
2019-06-27T12:13:53.955Z,56.53
2019-06-27T12:16:23.651Z,56.67
2019-06-27T12:18:53.335Z,57.37
2019-06-27T12:21:23.089Z,56.73
2019-06-27T12:23:52.782Z,57.60
2019-06-27T12:26:22.531Z,56.93
2019-06-27T12:28:52.290Z,57.33
2019-06-27T12:31:22.009Z,57.83
2019-06-27T12:34:05.527Z,56.30
2019-06-27T12:36:23.071Z,56.57
2019-06-27T12:38:52.749Z,56.97
2019-06-27T12:41:22.503Z,56.70
2019-06-27T12:43:52.183Z,56.87
2019-06-27T12:46:21.871Z,57.67
2019-06-27T12:48:51.649Z,57.67
2019-06-27T12:51:21.490Z,57.60
2019-06-27T12:53:51.224Z,57.53
2019-06-27T12:56:20.912Z,57.77
2019-06-27T12:58:50.666Z,57.77
2019-06-27T13:01:20.378Z,57.80
2019-06-27T13:03:50.063Z,57.37
2019-06-27T13:06:19.758Z,57.60
2019-06-27T13:08:49.438Z,57.60
2019-06-27T13:11:19.322Z,58.57
2019-06-27T13:13:49.013Z,57.47
2019-06-27T13:16:18.787Z,58.20
2019-06-27T13:18:48.545Z,57.83
2019-06-27T13:21:18.233Z,58.13
2019-06-27T13:23:49.022Z,57.80
2019-06-27T13:26:19.847Z,58.33
2019-06-27T13:28:49.631Z,59.33
2019-06-27T13:31:19.454Z,59.30
2019-06-27T13:33:49.147Z,60.20
2019-06-27T13:36:19.120Z,58.50
2019-06-27T13:39:01.114Z,58.23
2019-06-27T13:41:32.448Z,57.73
2019-06-27T13:44:02.130Z,58.83
2019-06-27T13:46:31.864Z,59.57
2019-06-27T13:49:01.628Z,58.37
2019-06-27T13:51:31.349Z,58.57
2019-06-27T13:54:01.913Z,58.13
2019-06-27T13:56:31.948Z,58.13
2019-06-27T13:59:01.723Z,59.17
2019-06-27T14:01:31.414Z,58.77
2019-06-27T14:04:01.113Z,58.23
2019-06-27T14:06:30.798Z,59.17
2019-06-27T14:09:00.488Z,61.07
2019-06-27T14:11:30.463Z,60.70
2019-06-27T14:14:00.264Z,57.97
2019-06-27T14:16:29.956Z,59.33
2019-06-27T14:19:00.883Z,58.70
2019-06-27T14:21:30.577Z,60.87
2019-06-27T14:24:00.308Z,58.47
2019-06-27T14:26:29.997Z,58.17
2019-06-27T14:28:59.694Z,58.33
2019-06-27T14:31:34.539Z,59.90
2019-06-27T14:34:04.299Z,58.30
2019-06-27T14:36:33.983Z,58.57
2019-06-27T14:39:05.333Z,59.07
2019-06-27T14:41:35.183Z,59.70
2019-06-27T14:44:04.975Z,59.23
2019-06-27T14:46:37.387Z,57.93
2019-06-27T14:49:06.335Z,58.67
2019-06-27T14:51:37.819Z,59.13
2019-06-27T14:54:07.675Z,58.90
2019-06-27T14:56:37.536Z,58.27
2019-06-27T14:59:07.302Z,58.17
2019-06-27T15:01:37.148Z,57.27
2019-06-27T15:04:06.849Z,58.03
2019-06-27T15:06:36.635Z,58.40
2019-06-27T15:09:06.708Z,57.67
2019-06-27T15:11:38.092Z,59.37
2019-06-27T15:14:07.859Z,58.90
2019-06-27T15:16:37.614Z,58.10
2019-06-27T15:19:07.380Z,57.07
2019-06-27T15:21:37.069Z,57.70
2019-06-27T15:24:06.931Z,57.80
2019-06-27T15:26:36.632Z,58.00
2019-06-27T15:29:06.348Z,57.33
2019-06-27T15:31:36.194Z,57.83
2019-06-27T15:34:05.966Z,57.87
2019-06-27T15:36:36.299Z,56.30
2019-06-27T15:39:06.451Z,56.57
2019-06-27T15:41:36.215Z,56.43
2019-06-27T15:44:05.915Z,56.13
2019-06-27T15:46:35.584Z,56.60
2019-06-27T15:49:06.419Z,56.90
2019-06-27T15:51:37.548Z,56.30
2019-06-27T15:54:07.316Z,56.33
2019-06-27T15:56:36.983Z,56.30
2019-06-27T15:59:06.738Z,57.17
2019-06-27T16:01:36.507Z,56.47
2019-06-27T16:04:06.206Z,56.63
2019-06-27T16:06:37.093Z,55.73
2019-06-27T16:09:07.400Z,55.97
2019-06-27T16:11:37.067Z,55.57
2019-06-27T16:14:06.775Z,56.17
2019-06-27T16:16:36.538Z,56.20
2019-06-27T16:19:06.215Z,56.37
2019-06-27T16:21:36.039Z,56.07
2019-06-27T16:24:05.904Z,56.50
2019-06-27T16:26:35.915Z,56.07
2019-06-27T16:29:05.630Z,55.43
2019-06-27T16:31:35.440Z,55.57
2019-06-27T16:34:05.205Z,55.90
2019-06-27T16:36:35.251Z,56.60
2019-06-27T16:39:05.767Z,56.23
2019-06-27T16:41:35.651Z,56.37
2019-06-27T16:44:05.439Z,56.23
2019-06-27T16:46:35.135Z,55.67
2019-06-27T16:49:04.970Z,55.70
2019-06-27T16:51:34.726Z,55.97
2019-06-27T16:54:04.583Z,56.10
2019-06-27T16:56:34.351Z,56.27
2019-06-27T16:59:04.700Z,54.87
2019-06-27T17:01:35.784Z,55.30
2019-06-27T17:04:05.626Z,55.40
2019-06-27T17:06:41.948Z,55.57
2019-06-27T17:09:07.241Z,56.17
2019-06-27T17:11:36.941Z,55.53
2019-06-27T17:14:06.786Z,55.57
2019-06-27T17:16:36.475Z,55.30
2019-06-27T17:19:07.363Z,55.63
2019-06-27T17:21:37.225Z,54.77
2019-06-27T17:24:07.063Z,55.13
2019-06-27T17:26:36.764Z,54.87
2019-06-27T17:29:06.531Z,54.67
2019-06-27T17:31:36.375Z,55.03
2019-06-27T17:34:08.362Z,54.10
2019-06-27T17:36:38.147Z,54.80
2019-06-27T17:39:08.133Z,55.70
2019-06-27T17:41:37.872Z,55.07
2019-06-27T17:44:07.586Z,54.97
2019-06-27T17:46:37.271Z,55.07
2019-06-27T17:49:06.971Z,54.80
2019-06-27T17:51:36.724Z,54.80
2019-06-27T17:54:06.483Z,53.83
2019-06-27T17:56:36.244Z,54.27
2019-06-27T17:59:05.932Z,54.70
2019-06-27T18:01:35.691Z,54.40
2019-06-27T18:04:05.404Z,54.17
2019-06-27T18:06:35.174Z,54.70
2019-06-27T18:09:05.446Z,54.03
2019-06-27T18:11:35.216Z,54.57
2019-06-27T18:14:05.137Z,54.73
2019-06-27T18:16:34.868Z,54.77
2019-06-27T18:19:04.636Z,54.30
2019-06-27T18:21:34.391Z,54.37
2019-06-27T18:24:04.187Z,54.00
2019-06-27T18:26:33.867Z,54.00
2019-06-27T18:29:03.642Z,54.37
2019-06-27T18:31:33.399Z,54.27
2019-06-27T18:34:03.163Z,54.10
2019-06-27T18:36:32.964Z,54.00
2019-06-27T18:39:02.718Z,53.83
2019-06-27T18:41:33.542Z,53.60
2019-06-27T18:44:03.319Z,53.80
2019-06-27T18:46:33.078Z,53.83
2019-06-27T18:49:03.634Z,54.27
2019-06-27T18:51:33.307Z,53.67
2019-06-27T18:54:03.102Z,53.53
2019-06-27T18:56:32.818Z,53.50
2019-06-27T18:59:02.587Z,54.27
2019-06-27T19:01:32.296Z,53.57
2019-06-27T19:04:02.037Z,54.20
2019-06-27T19:06:31.744Z,54.03
2019-06-27T19:09:01.448Z,54.27
2019-06-27T19:11:32.563Z,53.43
2019-06-27T19:14:02.335Z,53.77
2019-06-27T19:16:32.031Z,57.30
2019-06-27T19:19:04.487Z,54.20
2019-06-27T19:21:53.728Z,54.90
2019-06-27T19:24:51.584Z,54.23
2019-06-27T19:27:21.354Z,55.20
2019-06-27T19:29:51.060Z,54.07
2019-06-27T19:32:20.798Z,54.43
2019-06-27T19:34:52.964Z,54.97
2019-06-27T19:37:22.655Z,55.73
2019-06-27T19:39:52.346Z,53.90
2019-06-27T19:42:22.166Z,55.27
2019-06-27T19:44:51.855Z,53.60
2019-06-27T19:47:21.583Z,53.90
2019-06-27T19:49:51.323Z,54.30
2019-06-27T19:52:21.106Z,53.50
2019-06-27T19:54:50.871Z,53.47
2019-06-27T19:57:20.551Z,53.67
2019-06-27T19:59:50.918Z,53.63
2019-06-27T20:02:20.643Z,53.00
2019-06-27T20:04:50.413Z,54.00
2019-06-27T20:07:20.214Z,53.90
2019-06-27T20:09:49.903Z,53.80
2019-06-27T20:12:19.667Z,52.93
2019-06-27T20:14:49.362Z,53.27
2019-06-27T20:17:19.131Z,54.30
2019-06-27T20:19:48.920Z,53.23
2019-06-27T20:22:18.672Z,54.13
2019-06-27T20:24:48.483Z,53.07
2019-06-27T20:27:18.218Z,52.67
2019-06-27T20:29:47.915Z,53.30
2019-06-27T20:32:17.663Z,53.37
2019-06-27T20:34:47.354Z,53.47
2019-06-27T20:37:17.060Z,52.50
2019-06-27T20:39:47.204Z,52.53
2019-06-27T20:42:17.032Z,52.47
2019-06-27T20:44:46.719Z,52.20
2019-06-27T20:47:16.405Z,52.07
2019-06-27T20:49:46.187Z,53.17
2019-06-27T20:52:15.932Z,51.77
2019-06-27T20:54:45.691Z,52.07
2019-06-27T20:57:15.400Z,51.10
2019-06-27T20:59:45.191Z,52.17
2019-06-27T21:02:14.951Z,53.20
2019-06-27T21:04:44.728Z,53.30
2019-06-27T21:07:14.484Z,53.27
2019-06-27T21:09:44.165Z,52.17
2019-06-27T21:12:14.011Z,53.10
2019-06-27T21:14:43.712Z,53.33
2019-06-27T21:17:13.546Z,51.80
2019-06-27T21:19:43.246Z,52.30
2019-06-27T21:22:13.087Z,51.83
2019-06-27T21:24:42.839Z,51.90
2019-06-27T21:27:12.531Z,51.23
2019-06-27T21:29:42.291Z,51.60
2019-06-27T21:32:12.083Z,51.77
2019-06-27T21:34:41.790Z,52.40
2019-06-27T21:37:11.477Z,51.73
2019-06-27T21:39:41.215Z,51.90
2019-06-27T21:42:11.051Z,51.67
2019-06-27T21:44:40.726Z,51.70
2019-06-27T21:47:10.491Z,51.07
2019-06-27T21:49:40.207Z,51.07
2019-06-27T21:52:09.911Z,51.37
2019-06-27T21:54:39.663Z,51.07
2019-06-27T21:57:09.430Z,52.00
2019-06-27T21:59:39.116Z,50.97
2019-06-27T22:02:08.883Z,51.37
2019-06-27T22:04:38.711Z,51.73
2019-06-27T22:07:08.403Z,51.40
2019-06-27T22:09:38.088Z,50.83
2019-06-27T22:12:07.935Z,51.03
2019-06-27T22:14:37.690Z,50.97
2019-06-27T22:17:07.547Z,52.03
2019-06-27T22:19:37.229Z,51.20
2019-06-27T22:22:07.062Z,51.27
2019-06-27T22:24:36.903Z,50.97
2019-06-27T22:27:06.601Z,51.90
2019-06-27T22:29:36.266Z,51.53
2019-06-27T22:32:06.045Z,51.73
2019-06-27T22:34:36.810Z,52.43
2019-06-27T22:37:07.531Z,52.07
2019-06-27T22:39:55.514Z,50.90
2019-06-27T22:42:42.904Z,52.17
2019-06-27T22:45:30.795Z,51.07
2019-06-27T22:48:14.695Z,51.53
2019-06-27T22:51:09.724Z,51.57
2019-06-27T22:53:46.091Z,50.80
2019-06-27T22:56:15.779Z,51.20
2019-06-27T22:58:45.455Z,51.60
2019-06-27T23:01:15.211Z,51.20
2019-06-27T23:03:44.908Z,51.10
2019-06-27T23:06:14.716Z,52.40
2019-06-27T23:08:44.545Z,51.67
2019-06-27T23:11:14.334Z,51.50
2019-06-27T23:13:44.106Z,51.53
2019-06-27T23:16:13.861Z,51.43
2019-06-27T23:18:43.539Z,51.80
2019-06-27T23:21:13.220Z,51.33
2019-06-27T23:23:43.091Z,50.60
2019-06-27T23:26:13.851Z,51.27
2019-06-27T23:28:43.546Z,52.23
2019-06-27T23:31:14.478Z,52.17
2019-06-27T23:33:44.172Z,51.13
2019-06-27T23:36:14.825Z,52.10
2019-06-27T23:38:44.594Z,51.77
2019-06-27T23:41:14.264Z,52.03
2019-06-27T23:43:44.028Z,52.10
2019-06-27T23:46:31.435Z,50.90
2019-06-27T23:49:01.163Z,51.23
2019-06-27T23:51:30.855Z,51.23
2019-06-27T23:54:00.571Z,51.13
2019-06-27T23:56:31.322Z,51.53
2019-06-27T23:59:01.090Z,51.57
